sensor_id;sensor_type;location;lat;lon;timestamp;temperature;humidity
6863;DHT22;3470;48.738;9.616;2023-04-30T18:00:40;14.10;90.10
6863;DHT22;3470;48.738;9.616;2023-04-30T18:03:09;13.90;90.70
6863;DHT22;3470;48.738;9.616;2023-04-30T18:05:35;13.80;90.70
6863;DHT22;3470;48.738;9.616;2023-04-30T18:08:00;13.70;91.00
6863;DHT22;3470;48.738;9.616;2023-04-30T18:10:27;13.50;91.20
6863;DHT22;3470;48.738;9.616;2023-04-30T18:12:52;13.40;91.50
6863;DHT22;3470;48.738;9.616;2023-04-30T18:15:18;13.30;91.90
6863;DHT22;3470;48.738;9.616;2023-04-30T18:17:44;13.20;92.10
6863;DHT22;3470;48.738;9.616;2023-04-30T18:20:10;13.10;92.20
6863;DHT22;3470;48.738;9.616;2023-04-30T18:22:37;13.00;92.30
6863;DHT22;3470;48.738;9.616;2023-04-30T18:25:08;12.90;92.40
6863;DHT22;3470;48.738;9.616;2023-04-30T18:27:34;12.70;92.80
6863;DHT22;3470;48.738;9.616;2023-04-30T18:30:00;12.70;93.10
6863;DHT22;3470;48.738;9.616;2023-04-30T18:32:25;12.50;93.10
6863;DHT22;3470;48.738;9.616;2023-04-30T18:34:51;12.40;93.60
6863;DHT22;3470;48.738;9.616;2023-04-30T18:37:17;12.30;93.90
6863;DHT22;3470;48.738;9.616;2023-04-30T18:39:42;12.20;94.00
6863;DHT22;3470;48.738;9.616;2023-04-30T18:42:08;12.20;94.10
6863;DHT22;3470;48.738;9.616;2023-04-30T18:44:34;12.10;94.70
6863;DHT22;3470;48.738;9.616;2023-04-30T18:47:00;12.00;94.50
6863;DHT22;3470;48.738;9.616;2023-04-30T18:49:25;11.90;94.60
6863;DHT22;3470;48.738;9.616;2023-04-30T18:51:51;11.80;94.80
6863;DHT22;3470;48.738;9.616;2023-04-30T18:54:19;11.80;95.10
6863;DHT22;3470;48.738;9.616;2023-04-30T18:56:45;11.80;94.90
6863;DHT22;3470;48.738;9.616;2023-04-30T18:59:11;11.70;94.80
6863;DHT22;3470;48.738;9.616;2023-04-30T19:01:36;11.70;94.60
6863;DHT22;3470;48.738;9.616;2023-04-30T19:04:02;11.70;94.90
6863;DHT22;3470;48.738;9.616;2023-04-30T19:06:28;11.70;94.60
6863;DHT22;3470;48.738;9.616;2023-04-30T19:08:55;11.60;95.10
6863;DHT22;3470;48.738;9.616;2023-04-30T19:11:20;11.60;94.70
6863;DHT22;3470;48.738;9.616;2023-04-30T19:13:46;11.60;94.60
6863;DHT22;3470;48.738;9.616;2023-04-30T19:16:11;11.50;94.80
6863;DHT22;3470;48.738;9.616;2023-04-30T19:18:37;11.50;94.70
6863;DHT22;3470;48.738;9.616;2023-04-30T19:21:04;11.50;94.80
6863;DHT22;3470;48.738;9.616;2023-04-30T19:23:30;11.40;95.10
6863;DHT22;3470;48.738;9.616;2023-04-30T19:25:58;11.30;95.30
6863;DHT22;3470;48.738;9.616;2023-04-30T19:28:24;11.30;95.40
6863;DHT22;3470;48.738;9.616;2023-04-30T19:30:50;11.30;95.40
6863;DHT22;3470;48.738;9.616;2023-04-30T19:33:19;11.20;95.60
6863;DHT22;3470;48.738;9.616;2023-04-30T19:35:50;11.10;96.20
6863;DHT22;3470;48.738;9.616;2023-04-30T19:38:17;11.00;96.10
6863;DHT22;3470;48.738;9.616;2023-04-30T19:40:50;11.00;96.20
6863;DHT22;3470;48.738;9.616;2023-04-30T19:43:17;10.90;96.30
6863;DHT22;3470;48.738;9.616;2023-04-30T19:45:46;10.80;96.80
6863;DHT22;3470;48.738;9.616;2023-04-30T19:48:14;10.70;97.20
6863;DHT22;3470;48.738;9.616;2023-04-30T19:50:43;10.70;97.50
6863;DHT22;3470;48.738;9.616;2023-04-30T19:53:10;10.60;97.50
6863;DHT22;3470;48.738;9.616;2023-04-30T19:55:37;10.50;97.10
6863;DHT22;3470;48.738;9.616;2023-04-30T19:58:02;10.60;97.50
6863;DHT22;3470;48.738;9.616;2023-04-30T20:00:34;10.50;97.50
6863;DHT22;3470;48.738;9.616;2023-04-30T20:03:00;10.50;96.90
6863;DHT22;3470;48.738;9.616;2023-04-30T20:05:30;10.40;97.20
6863;DHT22;3470;48.738;9.616;2023-04-30T20:07:56;10.40;97.20
6863;DHT22;3470;48.738;9.616;2023-04-30T20:10:22;10.30;97.10
6863;DHT22;3470;48.738;9.616;2023-04-30T20:12:53;10.30;97.80
6863;DHT22;3470;48.738;9.616;2023-04-30T20:15:21;10.20;97.60
6863;DHT22;3470;48.738;9.616;2023-04-30T20:17:49;10.20;97.70
6863;DHT22;3470;48.738;9.616;2023-04-30T20:20:16;10.20;97.50
6863;DHT22;3470;48.738;9.616;2023-04-30T20:22:42;10.20;97.90
6863;DHT22;3470;48.738;9.616;2023-04-30T20:25:08;10.10;98.40
6863;DHT22;3470;48.738;9.616;2023-04-30T20:27:34;10.00;97.70
6863;DHT22;3470;48.738;9.616;2023-04-30T20:30:00;10.00;97.90
6863;DHT22;3470;48.738;9.616;2023-04-30T20:32:27;10.00;97.90
6863;DHT22;3470;48.738;9.616;2023-04-30T20:34:53;10.00;97.70
6863;DHT22;3470;48.738;9.616;2023-04-30T20:37:18;10.00;97.70
6863;DHT22;3470;48.738;9.616;2023-04-30T20:39:44;9.90;98.30
6863;DHT22;3470;48.738;9.616;2023-04-30T20:42:09;9.90;98.40
6863;DHT22;3470;48.738;9.616;2023-04-30T20:44:35;9.90;98.40
6863;DHT22;3470;48.738;9.616;2023-04-30T20:47:02;9.90;98.60
6863;DHT22;3470;48.738;9.616;2023-04-30T20:49:28;9.80;98.30
6863;DHT22;3470;48.738;9.616;2023-04-30T20:51:53;9.80;98.40
6863;DHT22;3470;48.738;9.616;2023-04-30T20:54:19;9.70;98.80
6863;DHT22;3470;48.738;9.616;2023-04-30T20:56:45;9.70;98.90
6863;DHT22;3470;48.738;9.616;2023-04-30T20:59:12;9.60;99.00
6863;DHT22;3470;48.738;9.616;2023-04-30T21:01:38;9.60;98.90
6863;DHT22;3470;48.738;9.616;2023-04-30T21:04:04;9.60;99.20
6863;DHT22;3470;48.738;9.616;2023-04-30T21:06:29;9.60;99.40
6863;DHT22;3470;48.738;9.616;2023-04-30T21:08:58;9.50;99.30
6863;DHT22;3470;48.738;9.616;2023-04-30T21:11:24;9.50;99.10
6863;DHT22;3470;48.738;9.616;2023-04-30T21:13:51;9.50;99.20
6863;DHT22;3470;48.738;9.616;2023-04-30T21:16:17;9.60;99.40
6863;DHT22;3470;48.738;9.616;2023-04-30T21:18:42;9.60;99.10
6863;DHT22;3470;48.738;9.616;2023-04-30T21:21:12;9.60;99.10
6863;DHT22;3470;48.738;9.616;2023-04-30T21:23:38;9.60;98.90
6863;DHT22;3470;48.738;9.616;2023-04-30T21:26:04;9.60;98.80
6863;DHT22;3470;48.738;9.616;2023-04-30T21:28:30;9.60;98.90
6863;DHT22;3470;48.738;9.616;2023-04-30T21:30:55;9.60;98.60
6863;DHT22;3470;48.738;9.616;2023-04-30T21:33:21;9.60;98.60
6863;DHT22;3470;48.738;9.616;2023-04-30T21:35:47;9.60;98.90
6863;DHT22;3470;48.738;9.616;2023-04-30T21:38:12;9.60;98.80
6863;DHT22;3470;48.738;9.616;2023-04-30T21:40:38;9.50;98.90
6863;DHT22;3470;48.738;9.616;2023-04-30T21:43:05;9.50;98.80
6863;DHT22;3470;48.738;9.616;2023-04-30T21:45:31;9.50;99.10
6863;DHT22;3470;48.738;9.616;2023-04-30T21:47:56;9.50;99.00
6863;DHT22;3470;48.738;9.616;2023-04-30T21:50:22;9.50;99.50
6863;DHT22;3470;48.738;9.616;2023-04-30T21:52:49;9.50;99.60
6863;DHT22;3470;48.738;9.616;2023-04-30T21:55:15;9.50;99.60
6863;DHT22;3470;48.738;9.616;2023-04-30T21:57:41;9.50;99.60
6863;DHT22;3470;48.738;9.616;2023-04-30T22:00:07;9.50;99.80
6863;DHT22;3470;48.738;9.616;2023-04-30T22:02:41;9.40;99.90
6863;DHT22;3470;48.738;9.616;2023-04-30T22:05:08;9.30;99.90
6863;DHT22;3470;48.738;9.616;2023-04-30T22:07:33;9.30;99.90
6863;DHT22;3470;48.738;9.616;2023-04-30T22:09:59;9.20;99.90
6863;DHT22;3470;48.738;9.616;2023-04-30T22:12:24;9.20;99.90
6863;DHT22;3470;48.738;9.616;2023-04-30T22:14:54;9.20;99.90
6863;DHT22;3470;48.738;9.616;2023-04-30T22:17:20;9.10;99.90
6863;DHT22;3470;48.738;9.616;2023-04-30T22:19:46;9.10;99.90
6863;DHT22;3470;48.738;9.616;2023-04-30T22:22:11;9.00;99.90
6863;DHT22;3470;48.738;9.616;2023-04-30T22:24:37;9.00;99.90
6863;DHT22;3470;48.738;9.616;2023-04-30T22:27:05;8.90;99.90
6863;DHT22;3470;48.738;9.616;2023-04-30T22:29:31;8.90;99.90
6863;DHT22;3470;48.738;9.616;2023-04-30T22:31:56;8.90;99.90
6863;DHT22;3470;48.738;9.616;2023-04-30T22:34:22;8.90;99.90
6863;DHT22;3470;48.738;9.616;2023-04-30T22:36:49;8.90;99.90
6863;DHT22;3470;48.738;9.616;2023-04-30T22:39:14;8.80;99.90
6863;DHT22;3470;48.738;9.616;2023-04-30T22:41:41;8.80;99.90
6863;DHT22;3470;48.738;9.616;2023-04-30T22:44:12;8.80;99.90
6863;DHT22;3470;48.738;9.616;2023-04-30T22:46:38;8.80;99.90
6863;DHT22;3470;48.738;9.616;2023-04-30T22:49:06;8.80;99.90
6863;DHT22;3470;48.738;9.616;2023-04-30T22:51:32;8.70;99.90
6863;DHT22;3470;48.738;9.616;2023-04-30T22:54:00;8.70;99.90
6863;DHT22;3470;48.738;9.616;2023-04-30T22:56:26;8.70;99.90
6863;DHT22;3470;48.738;9.616;2023-04-30T22:58:52;8.70;99.90
6863;DHT22;3470;48.738;9.616;2023-04-30T23:01:18;8.70;99.90
6863;DHT22;3470;48.738;9.616;2023-04-30T23:03:44;8.70;99.90
6863;DHT22;3470;48.738;9.616;2023-04-30T23:06:10;8.60;99.90
6863;DHT22;3470;48.738;9.616;2023-04-30T23:08:36;8.70;99.90
6863;DHT22;3470;48.738;9.616;2023-04-30T23:11:01;8.60;99.90
6863;DHT22;3470;48.738;9.616;2023-04-30T23:13:29;8.60;99.90
6863;DHT22;3470;48.738;9.616;2023-04-30T23:15:58;8.60;99.90
6863;DHT22;3470;48.738;9.616;2023-04-30T23:18:25;8.60;99.90
6863;DHT22;3470;48.738;9.616;2023-04-30T23:20:53;8.60;99.90
6863;DHT22;3470;48.738;9.616;2023-04-30T23:23:19;8.60;99.90
6863;DHT22;3470;48.738;9.616;2023-04-30T23:25:45;8.60;99.90
6863;DHT22;3470;48.738;9.616;2023-04-30T23:28:11;8.60;99.90
6863;DHT22;3470;48.738;9.616;2023-04-30T23:30:37;8.60;99.90
6863;DHT22;3470;48.738;9.616;2023-04-30T23:33:05;8.60;99.90
6863;DHT22;3470;48.738;9.616;2023-04-30T23:35:31;8.60;99.90
6863;DHT22;3470;48.738;9.616;2023-04-30T23:37:56;8.60;99.90
6863;DHT22;3470;48.738;9.616;2023-04-30T23:40:22;8.60;99.90
6863;DHT22;3470;48.738;9.616;2023-04-30T23:42:47;8.60;99.90
6863;DHT22;3470;48.738;9.616;2023-04-30T23:45:13;8.50;99.90
6863;DHT22;3470;48.738;9.616;2023-04-30T23:47:39;8.50;99.90
6863;DHT22;3470;48.738;9.616;2023-04-30T23:50:04;8.60;99.90
6863;DHT22;3470;48.738;9.616;2023-04-30T23:52:30;8.50;99.90
6863;DHT22;3470;48.738;9.616;2023-04-30T23:54:56;8.50;99.90
6863;DHT22;3470;48.738;9.616;2023-04-30T23:57:21;8.60;99.90
6863;DHT22;3470;48.738;9.616;2023-04-30T23:59:47;8.50;99.90
